createdAt,value
2018-05-16T00:01:52.477Z,21.57
2018-05-16T00:04:20.118Z,21.53
2018-05-16T00:06:47.741Z,21.50
2018-05-16T00:09:15.373Z,21.47
2018-05-16T00:11:43.002Z,21.46
2018-05-16T00:14:10.565Z,21.43
2018-05-16T00:16:38.197Z,21.39
2018-05-16T00:19:05.755Z,21.42
2018-05-16T00:21:33.360Z,21.43
2018-05-16T00:24:00.916Z,21.46
2018-05-16T00:26:28.481Z,21.43
2018-05-16T00:28:56.055Z,21.48
2018-05-16T00:31:23.709Z,21.50
2018-05-16T00:33:51.273Z,21.49
2018-05-16T00:36:18.829Z,21.54
2018-05-16T00:38:46.513Z,21.53
2018-05-16T00:41:14.073Z,21.58
2018-05-16T00:43:41.633Z,21.54
2018-05-16T00:46:09.246Z,21.47
2018-05-16T00:48:36.902Z,21.49
2018-05-16T00:51:16.377Z,21.50
2018-05-16T00:53:44.005Z,21.42
2018-05-16T00:56:11.684Z,21.38
2018-05-16T00:58:39.244Z,21.35
2018-05-16T01:01:06.781Z,21.32
2018-05-16T01:03:34.405Z,21.36
2018-05-16T01:06:01.965Z,21.37
2018-05-16T01:08:29.573Z,21.35
2018-05-16T01:10:57.197Z,21.32
2018-05-16T01:13:24.760Z,21.24
2018-05-16T01:15:52.393Z,21.20
2018-05-16T01:18:20.010Z,21.19
2018-05-16T01:20:47.641Z,21.21
2018-05-16T01:23:15.285Z,21.23
2018-05-16T01:25:42.849Z,21.26
2018-05-16T01:28:10.473Z,21.26
2018-05-16T01:30:38.206Z,21.23
2018-05-16T01:33:05.785Z,21.13
2018-05-16T01:35:33.340Z,20.99
2018-05-16T01:38:00.952Z,20.82
2018-05-16T01:40:28.508Z,20.72
2018-05-16T01:42:56.060Z,20.61
2018-05-16T01:45:23.641Z,20.50
2018-05-16T01:47:51.200Z,20.43
2018-05-16T01:50:18.901Z,20.32
2018-05-16T01:52:46.528Z,20.27
2018-05-16T01:55:14.140Z,20.22
2018-05-16T01:57:41.761Z,20.18
2018-05-16T02:00:09.320Z,20.10
2018-05-16T02:02:36.869Z,20.05
2018-05-16T02:05:04.470Z,19.98
2018-05-16T02:07:32.039Z,19.95
2018-05-16T02:09:59.661Z,19.87
2018-05-16T02:12:27.268Z,19.78
2018-05-16T02:14:54.860Z,19.73
2018-05-16T02:17:22.415Z,19.70
2018-05-16T02:19:49.985Z,19.68
2018-05-16T02:22:17.541Z,19.69
2018-05-16T02:24:45.105Z,19.70
2018-05-16T02:27:12.664Z,19.75
2018-05-16T02:29:40.291Z,19.75
2018-05-16T02:32:07.857Z,19.72
2018-05-16T02:34:35.413Z,19.74
2018-05-16T02:37:03.046Z,19.78
2018-05-16T02:39:30.646Z,19.80
2018-05-16T02:41:58.215Z,19.80
2018-05-16T02:44:25.772Z,19.77
2018-05-16T02:46:53.382Z,19.74
2018-05-16T02:49:21.001Z,19.71
2018-05-16T02:51:48.575Z,19.66
2018-05-16T02:54:16.287Z,19.64
2018-05-16T02:56:43.869Z,19.61
2018-05-16T02:59:11.498Z,19.63
2018-05-16T03:01:39.062Z,19.62
2018-05-16T03:04:06.749Z,19.66
2018-05-16T03:06:34.382Z,19.62
2018-05-16T03:09:01.955Z,19.59
2018-05-16T03:11:29.597Z,19.61
2018-05-16T03:13:57.190Z,19.63
2018-05-16T03:16:24.758Z,19.68
2018-05-16T03:18:52.569Z,19.74
2018-05-16T03:21:20.196Z,19.79
2018-05-16T03:23:47.756Z,19.82
2018-05-16T03:26:15.316Z,19.86
2018-05-16T03:28:42.876Z,19.85
2018-05-16T03:31:10.445Z,19.86
2018-05-16T03:33:38.008Z,19.91
2018-05-16T03:36:05.569Z,19.98
2018-05-16T03:38:33.197Z,20.03
2018-05-16T03:41:00.832Z,20.07
2018-05-16T03:43:28.459Z,20.15
2018-05-16T03:45:56.029Z,20.26
2018-05-16T03:48:23.657Z,20.37
2018-05-16T03:50:51.225Z,20.45
2018-05-16T03:53:18.784Z,20.55
2018-05-16T03:55:46.464Z,20.61
2018-05-16T03:58:25.929Z,20.66
2018-05-16T04:01:05.319Z,20.78
2018-05-16T04:03:44.765Z,20.93
2018-05-16T04:06:12.332Z,21.02
2018-05-16T04:08:39.892Z,21.15
2018-05-16T04:11:07.562Z,21.18
2018-05-16T04:13:35.248Z,21.26
2018-05-16T04:16:02.723Z,21.37
2018-05-16T04:18:30.400Z,21.43
2018-05-16T04:20:58.895Z,21.77
2018-05-16T04:23:26.461Z,22.24
2018-05-16T04:25:54.868Z,22.10
2018-05-16T04:28:22.489Z,22.05
2018-05-16T04:30:50.065Z,22.02
2018-05-16T04:33:17.621Z,22.62
2018-05-16T04:35:45.192Z,22.93
2018-05-16T04:38:12.801Z,22.84
2018-05-16T04:40:40.351Z,22.36
2018-05-16T04:43:07.981Z,21.80
2018-05-16T04:45:35.601Z,21.39
2018-05-16T04:48:03.156Z,21.12
2018-05-16T04:50:30.717Z,20.96
2018-05-16T04:52:58.281Z,20.78
2018-05-16T04:55:25.852Z,20.68
2018-05-16T04:57:53.453Z,20.53
2018-05-16T05:00:21.064Z,20.44
2018-05-16T05:02:48.628Z,20.49
2018-05-16T05:05:16.198Z,20.57
2018-05-16T05:07:43.825Z,20.55
2018-05-16T05:10:11.397Z,20.60
2018-05-16T05:12:39.065Z,20.73
2018-05-16T05:15:06.625Z,20.76
2018-05-16T05:17:34.189Z,20.79
2018-05-16T05:20:01.761Z,20.82
2018-05-16T05:22:29.325Z,20.84
2018-05-16T05:24:56.935Z,20.90
2018-05-16T05:27:24.500Z,20.83
2018-05-16T05:29:52.102Z,20.77
2018-05-16T05:32:19.693Z,20.92
2018-05-16T05:34:47.233Z,21.15
2018-05-16T05:37:14.856Z,21.60
2018-05-16T05:39:42.412Z,22.30
2018-05-16T05:42:10.089Z,23.07
2018-05-16T05:44:37.657Z,23.45
2018-05-16T05:47:05.212Z,23.84
2018-05-16T05:49:32.842Z,24.14
2018-05-16T05:52:00.405Z,23.74
2018-05-16T05:54:28.025Z,23.56
2018-05-16T05:56:55.630Z,24.07
2018-05-16T05:59:23.188Z,25.37
2018-05-16T06:01:50.860Z,27.41
2018-05-16T06:04:18.491Z,29.39
2018-05-16T06:06:46.052Z,31.02
2018-05-16T06:09:13.642Z,31.31
2018-05-16T06:11:41.204Z,30.55
2018-05-16T06:14:08.985Z,29.57
2018-05-16T06:16:36.537Z,29.68
2018-05-16T06:19:04.253Z,30.23
2018-05-16T06:21:31.820Z,31.34
2018-05-16T06:23:59.386Z,31.41
2018-05-16T06:26:27.088Z,31.67
2018-05-16T06:28:54.648Z,32.85
2018-05-16T06:31:22.207Z,33.93
2018-05-16T06:33:49.792Z,34.48
2018-05-16T06:36:17.358Z,34.72
2018-05-16T06:38:44.963Z,34.32
2018-05-16T06:41:12.516Z,33.18
2018-05-16T06:43:40.097Z,32.30
2018-05-16T06:46:07.655Z,31.24
2018-05-16T06:48:35.213Z,30.93
2018-05-16T06:51:02.845Z,30.32
2018-05-16T06:53:30.400Z,29.83
2018-05-16T06:55:57.972Z,29.03
2018-05-16T06:58:25.592Z,28.75
2018-05-16T07:00:53.156Z,28.37
2018-05-16T07:03:20.721Z,28.35
2018-05-16T07:05:48.316Z,27.98
2018-05-16T07:08:15.868Z,28.01
2018-05-16T07:10:43.456Z,28.37
2018-05-16T07:13:11.040Z,28.78
2018-05-16T07:15:38.618Z,29.12
2018-05-16T07:18:06.184Z,29.27
2018-05-16T07:20:33.739Z,29.13
2018-05-16T07:23:01.292Z,29.33
2018-05-16T07:25:28.840Z,29.38
2018-05-16T07:27:56.612Z,29.96
2018-05-16T07:30:24.180Z,30.01
2018-05-16T07:32:51.736Z,29.74
2018-05-16T07:35:19.300Z,29.58
2018-05-16T07:37:46.856Z,29.37
2018-05-16T07:40:14.420Z,29.87
2018-05-16T07:42:42.028Z,30.09
2018-05-16T07:45:09.624Z,30.23
2018-05-16T07:47:37.252Z,29.86
2018-05-16T07:50:04.840Z,29.54
2018-05-16T07:52:32.409Z,29.58
2018-05-16T07:54:59.965Z,30.08
2018-05-16T07:57:27.536Z,30.44
2018-05-16T07:59:55.101Z,30.83
2018-05-16T08:02:22.691Z,31.25
2018-05-16T08:04:50.248Z,31.41
2018-05-16T08:07:17.810Z,31.65
2018-05-16T08:09:45.380Z,31.59
2018-05-16T08:12:12.985Z,30.93
2018-05-16T08:14:40.537Z,30.18
2018-05-16T08:17:08.079Z,29.73
2018-05-16T08:19:35.650Z,29.44
2018-05-16T08:22:03.200Z,29.20
2018-05-16T08:24:30.757Z,29.21
2018-05-16T08:26:58.320Z,28.86
2018-05-16T08:29:25.880Z,28.54
2018-05-16T08:31:53.459Z,28.69
2018-05-16T08:34:21.037Z,28.55
2018-05-16T08:36:48.644Z,28.64
2018-05-16T08:39:16.201Z,28.88
2018-05-16T08:41:43.782Z,29.21
2018-05-16T08:44:11.361Z,29.30
2018-05-16T08:46:38.933Z,29.55
2018-05-16T08:49:06.504Z,29.46
2018-05-16T08:51:34.074Z,29.35
2018-05-16T08:54:01.680Z,29.43
2018-05-16T08:56:29.240Z,29.13
2018-05-16T08:58:56.800Z,28.90
2018-05-16T09:01:24.377Z,28.80
2018-05-16T09:03:52.270Z,28.36
2018-05-16T09:06:19.836Z,28.06
2018-05-16T09:08:47.396Z,28.06
2018-05-16T09:11:15.001Z,28.21
2018-05-16T09:13:42.568Z,28.43
2018-05-16T09:16:10.109Z,28.53
2018-05-16T09:18:37.685Z,28.63
2018-05-16T09:21:05.245Z,28.91
2018-05-16T09:23:32.812Z,28.78
2018-05-16T09:26:00.368Z,28.82
2018-05-16T09:28:27.954Z,28.87
2018-05-16T09:30:55.504Z,28.65
2018-05-16T09:33:23.060Z,28.25
2018-05-16T09:35:50.639Z,27.98
2018-05-16T09:38:18.206Z,27.84
2018-05-16T09:40:45.781Z,27.79
2018-05-16T09:43:13.351Z,28.32
2018-05-16T09:45:40.979Z,28.91
2018-05-16T09:48:08.541Z,29.30
2018-05-16T09:50:36.156Z,29.39
2018-05-16T09:53:03.720Z,29.65
2018-05-16T09:55:31.372Z,29.21
2018-05-16T09:57:59.034Z,28.67
2018-05-16T10:00:30.562Z,28.18
2018-05-16T10:02:58.173Z,27.91
2018-05-16T10:05:25.728Z,27.72
2018-05-16T10:07:53.288Z,28.38
2018-05-16T10:10:21.007Z,28.95
2018-05-16T10:12:48.563Z,29.37
2018-05-16T10:15:16.157Z,29.79
2018-05-16T10:17:43.727Z,30.21
2018-05-16T10:20:11.375Z,30.12
2018-05-16T10:22:38.879Z,30.38
2018-05-16T10:25:06.437Z,30.99
2018-05-16T10:27:34.035Z,31.65
2018-05-16T10:30:01.597Z,31.91
2018-05-16T10:32:29.148Z,32.00
2018-05-16T10:34:56.707Z,32.20
2018-05-16T10:37:24.276Z,32.59
2018-05-16T10:39:51.869Z,32.89
2018-05-16T10:42:19.424Z,33.35
2018-05-16T10:44:46.989Z,33.60
2018-05-16T10:47:14.560Z,33.96
2018-05-16T10:49:42.112Z,34.08
2018-05-16T10:52:09.721Z,33.59
2018-05-16T10:54:38.224Z,33.51
2018-05-16T10:57:06.569Z,33.28
2018-05-16T10:59:34.138Z,33.40
2018-05-16T11:02:01.696Z,33.71
2018-05-16T11:04:29.293Z,34.07
2018-05-16T11:06:56.874Z,34.66
2018-05-16T11:09:24.457Z,34.42
2018-05-16T11:11:52.020Z,34.70
2018-05-16T11:14:19.577Z,35.02
2018-05-16T11:16:47.175Z,35.02
2018-05-16T11:19:14.741Z,33.81
2018-05-16T11:21:42.300Z,33.28
2018-05-16T11:24:09.868Z,33.37
2018-05-16T11:26:37.420Z,33.96
2018-05-16T11:29:05.021Z,34.25
2018-05-16T11:31:32.561Z,34.92
2018-05-16T11:34:00.125Z,35.90
2018-05-16T11:36:27.701Z,35.92
2018-05-16T11:38:55.321Z,35.84
2018-05-16T11:41:22.933Z,36.12
2018-05-16T11:43:50.493Z,36.03
2018-05-16T11:46:18.113Z,35.58
2018-05-16T11:48:45.751Z,35.56
2018-05-16T11:51:13.248Z,35.51
2018-05-16T11:53:40.857Z,35.33
2018-05-16T11:56:08.543Z,35.40
2018-05-16T11:58:36.100Z,35.49
2018-05-16T12:01:03.697Z,35.96
2018-05-16T12:03:31.317Z,36.69
2018-05-16T12:05:58.933Z,37.19
2018-05-16T12:08:26.550Z,36.27
2018-05-16T12:10:54.149Z,34.95
2018-05-16T12:13:21.724Z,33.90
2018-05-16T12:15:49.281Z,33.51
2018-05-16T12:18:16.903Z,33.80
2018-05-16T12:20:44.536Z,33.85
2018-05-16T12:23:12.160Z,34.39
2018-05-16T12:25:39.797Z,34.94
2018-05-16T12:28:07.376Z,35.03
2018-05-16T12:30:35.064Z,36.26
2018-05-16T12:33:02.624Z,36.59
2018-05-16T12:35:30.389Z,36.71
2018-05-16T12:37:58.014Z,37.47
2018-05-16T12:40:25.572Z,37.42
2018-05-16T12:43:05.009Z,36.79
2018-05-16T12:45:32.626Z,35.85
2018-05-16T12:48:00.188Z,35.81
2018-05-16T12:50:27.753Z,36.01
2018-05-16T12:52:55.387Z,35.89
2018-05-16T12:55:23.013Z,35.80
2018-05-16T12:57:50.557Z,35.39
2018-05-16T13:00:18.124Z,36.00
2018-05-16T13:02:45.706Z,35.73
2018-05-16T13:05:13.325Z,35.53
2018-05-16T13:07:40.942Z,36.09
2018-05-16T13:10:08.482Z,35.97
2018-05-16T13:12:36.047Z,35.37
2018-05-16T13:15:03.639Z,34.68
2018-05-16T13:17:31.210Z,33.17
2018-05-16T13:19:58.907Z,31.96
2018-05-16T13:22:26.534Z,31.20
2018-05-16T13:24:54.163Z,30.96
2018-05-16T13:27:21.724Z,31.03
2018-05-16T13:29:49.344Z,30.82
2018-05-16T13:32:17.072Z,30.46
2018-05-16T13:34:44.654Z,30.02
2018-05-16T13:37:12.227Z,29.36
2018-05-16T13:39:39.813Z,29.03
2018-05-16T13:42:07.373Z,28.79
2018-05-16T13:44:35.045Z,28.66
2018-05-16T13:47:02.710Z,28.70
2018-05-16T13:49:30.333Z,28.68
2018-05-16T13:51:57.888Z,28.66
2018-05-16T13:54:25.445Z,28.48
2018-05-16T13:56:53.053Z,28.39
2018-05-16T13:59:20.669Z,28.53
2018-05-16T14:01:48.297Z,28.84
2018-05-16T14:04:15.930Z,28.79
2018-05-16T14:06:43.497Z,28.73
2018-05-16T14:09:11.045Z,28.65
2018-05-16T14:11:38.596Z,28.48
2018-05-16T14:14:06.269Z,28.34
2018-05-16T14:16:33.823Z,28.09
2018-05-16T14:19:01.369Z,28.14
2018-05-16T14:21:28.959Z,27.99
2018-05-16T14:23:56.581Z,27.85
2018-05-16T14:26:24.122Z,27.80
2018-05-16T14:28:51.741Z,27.69
2018-05-16T14:31:19.357Z,27.58
2018-05-16T14:33:46.912Z,27.46
2018-05-16T14:36:14.555Z,27.45
2018-05-16T14:38:42.157Z,27.39
2018-05-16T14:41:09.737Z,27.41
2018-05-16T14:43:37.313Z,27.41
2018-05-16T14:46:04.941Z,27.21
2018-05-16T14:48:32.616Z,27.11
2018-05-16T14:51:00.152Z,27.08
2018-05-16T14:53:27.708Z,27.02
2018-05-16T14:55:55.353Z,26.98
2018-05-16T14:58:22.983Z,26.89
2018-05-16T15:00:50.653Z,26.86
2018-05-16T15:03:18.273Z,26.82
2018-05-16T15:05:45.901Z,26.80
2018-05-16T15:08:13.471Z,26.81
2018-05-16T15:10:41.099Z,26.80
2018-05-16T15:13:08.677Z,26.84
2018-05-16T15:15:36.238Z,26.93
2018-05-16T15:18:03.818Z,26.99
2018-05-16T15:20:31.439Z,27.02
2018-05-16T15:22:59.080Z,27.18
2018-05-16T15:25:26.705Z,27.28
2018-05-16T15:27:54.276Z,27.33
2018-05-16T15:30:21.845Z,27.27
2018-05-16T15:32:49.413Z,27.23
2018-05-16T15:35:16.980Z,27.21
2018-05-16T15:37:44.541Z,27.17
2018-05-16T15:40:12.156Z,27.02
2018-05-16T15:42:39.775Z,26.86
2018-05-16T15:45:07.347Z,26.73
2018-05-16T15:47:35.001Z,26.68
2018-05-16T15:50:02.621Z,26.48
2018-05-16T15:52:30.204Z,26.37
2018-05-16T15:54:57.760Z,26.21
2018-05-16T15:57:25.445Z,26.02
2018-05-16T15:59:53.005Z,25.85
2018-05-16T16:02:20.568Z,25.81
2018-05-16T16:04:48.167Z,25.73
2018-05-16T16:07:15.774Z,25.69
2018-05-16T16:09:43.354Z,25.65
2018-05-16T16:12:10.938Z,25.62
2018-05-16T16:14:38.617Z,25.52
2018-05-16T16:17:06.321Z,25.45
2018-05-16T16:19:33.885Z,25.40
2018-05-16T16:22:01.586Z,25.35
2018-05-16T16:24:29.197Z,25.29
2018-05-16T16:26:56.770Z,25.27
2018-05-16T16:29:24.328Z,25.16
2018-05-16T16:31:51.955Z,25.11
2018-05-16T16:34:19.522Z,25.03
2018-05-16T16:36:47.081Z,25.10
2018-05-16T16:39:14.716Z,25.11
2018-05-16T16:41:42.289Z,25.13
2018-05-16T16:44:09.927Z,25.06
2018-05-16T16:46:37.549Z,24.98
2018-05-16T16:49:05.232Z,25.04
2018-05-16T16:51:32.885Z,25.02
2018-05-16T16:54:00.471Z,25.01
2018-05-16T16:56:28.668Z,24.99
2018-05-16T16:58:56.235Z,24.94
2018-05-16T17:01:23.797Z,24.71
2018-05-16T17:03:51.421Z,24.70
2018-05-16T17:06:19.034Z,24.63
2018-05-16T17:08:46.649Z,24.58
2018-05-16T17:11:14.274Z,24.57
2018-05-16T17:13:41.897Z,24.50
2018-05-16T17:16:09.504Z,24.44
2018-05-16T17:18:37.141Z,24.38
2018-05-16T17:21:04.762Z,24.35
2018-05-16T17:23:32.376Z,24.30
2018-05-16T17:25:59.951Z,24.22
2018-05-16T17:28:27.504Z,24.23
2018-05-16T17:30:55.146Z,24.10
2018-05-16T17:33:22.949Z,23.97
2018-05-16T17:35:50.573Z,23.93
2018-05-16T17:38:18.195Z,23.89
2018-05-16T17:40:45.811Z,23.80
2018-05-16T17:43:13.372Z,23.77
2018-05-16T17:45:40.932Z,23.74
2018-05-16T17:48:08.500Z,23.69
2018-05-16T17:50:36.059Z,23.66
2018-05-16T17:53:03.685Z,23.57
2018-05-16T17:55:31.945Z,23.52
2018-05-16T17:57:59.572Z,23.38
2018-05-16T18:00:27.138Z,23.30
2018-05-16T18:02:54.693Z,23.18
2018-05-16T18:05:22.332Z,23.04
2018-05-16T18:07:49.901Z,22.97
2018-05-16T18:10:17.528Z,22.84
2018-05-16T18:15:56.693Z,22.79
2018-05-16T18:18:24.245Z,22.81
2018-05-16T18:20:51.872Z,22.79
2018-05-16T18:23:19.437Z,22.79
2018-05-16T18:25:47.061Z,22.72
2018-05-16T18:28:14.607Z,22.65
2018-05-16T18:30:42.195Z,22.66
2018-05-16T18:33:09.773Z,22.68
2018-05-16T18:35:37.324Z,22.69
2018-05-16T18:38:04.953Z,22.75
2018-05-16T18:40:32.577Z,22.75
2018-05-16T18:43:00.149Z,22.79
2018-05-16T18:45:27.737Z,22.76
2018-05-16T18:47:55.377Z,22.75
2018-05-16T18:50:23.016Z,22.73
2018-05-16T18:52:50.604Z,22.66
2018-05-16T18:55:18.239Z,22.52
2018-05-16T18:57:45.865Z,22.40
2018-05-16T19:00:13.485Z,22.25
2018-05-16T19:02:41.056Z,22.11
2018-05-16T19:05:08.678Z,22.07
2018-05-16T19:07:36.246Z,22.05
2018-05-16T19:10:03.829Z,21.98
2018-05-16T19:12:31.462Z,21.90
2018-05-16T19:14:59.001Z,21.76
2018-05-16T19:17:26.621Z,21.68
2018-05-16T19:19:54.283Z,21.59
2018-05-16T19:22:21.815Z,21.54
2018-05-16T19:24:49.384Z,21.52
2018-05-16T19:27:18.313Z,21.52
2018-05-16T19:29:45.932Z,21.54
2018-05-16T19:32:13.633Z,21.49
2018-05-16T19:34:41.189Z,21.50
2018-05-16T19:37:08.789Z,21.49
2018-05-16T19:39:36.356Z,21.41
2018-05-16T19:42:03.934Z,21.42
2018-05-16T19:44:31.497Z,21.48
2018-05-16T19:46:59.118Z,21.46
2018-05-16T19:49:26.680Z,21.41
2018-05-16T19:51:54.312Z,21.35
2018-05-16T19:54:21.891Z,21.30
2018-05-16T19:56:49.514Z,21.31
2018-05-16T19:59:17.084Z,21.30
2018-05-16T20:01:44.701Z,21.31
2018-05-16T20:04:12.380Z,21.29
2018-05-16T20:06:40.000Z,21.32
2018-05-16T20:09:07.617Z,21.36
2018-05-16T20:11:35.188Z,21.39
2018-05-16T20:14:02.745Z,21.46
2018-05-16T20:16:30.360Z,21.51
2018-05-16T20:18:57.925Z,21.55
2018-05-16T20:21:25.546Z,21.58
2018-05-16T20:23:53.120Z,21.61
2018-05-16T20:26:20.677Z,21.63
2018-05-16T20:28:48.261Z,21.64
2018-05-16T20:31:15.877Z,21.68
2018-05-16T20:33:43.428Z,21.72
2018-05-16T20:36:11.027Z,21.73
2018-05-16T20:38:38.584Z,21.75
2018-05-16T20:41:06.236Z,21.78
2018-05-16T20:43:33.807Z,21.79
2018-05-16T20:46:01.429Z,21.78
2018-05-16T20:48:29.041Z,21.75
2018-05-16T20:50:56.596Z,21.79
2018-05-16T20:53:24.162Z,21.83
2018-05-16T20:55:51.716Z,21.83
2018-05-16T20:58:19.359Z,21.84
2018-05-16T21:00:46.987Z,21.87
2018-05-16T21:03:14.601Z,21.86
2018-05-16T21:05:42.222Z,21.85
2018-05-16T21:08:09.841Z,21.87
2018-05-16T21:10:37.412Z,21.85
2018-05-16T21:13:05.033Z,21.87
2018-05-16T21:15:32.597Z,21.87
2018-05-16T21:18:00.213Z,21.85
2018-05-16T21:20:27.962Z,21.82
2018-05-16T21:22:55.520Z,21.82
2018-05-16T21:25:23.118Z,21.79
2018-05-16T21:27:50.684Z,21.73
2018-05-16T21:30:18.314Z,21.64
2018-05-16T21:32:45.957Z,21.38
2018-05-16T21:35:13.581Z,21.18
2018-05-16T21:37:41.218Z,20.95
2018-05-16T21:40:08.780Z,20.77
2018-05-16T21:42:36.352Z,20.65
2018-05-16T21:45:04.023Z,20.57
2018-05-16T21:47:31.580Z,20.46
2018-05-16T21:49:59.206Z,20.35
2018-05-16T21:52:26.760Z,20.26
2018-05-16T21:54:54.381Z,20.18
2018-05-16T21:57:21.922Z,20.08
2018-05-16T21:59:49.564Z,19.99
2018-05-16T22:02:17.233Z,19.93
2018-05-16T22:04:44.867Z,19.86
2018-05-16T22:07:12.440Z,19.75
2018-05-16T22:09:40.006Z,19.68
2018-05-16T22:12:07.704Z,19.62
2018-05-16T22:14:35.274Z,19.52
2018-05-16T22:17:02.832Z,19.42
2018-05-16T22:19:30.426Z,19.32
2018-05-16T22:21:57.993Z,19.23
2018-05-16T22:24:25.556Z,19.17
2018-05-16T22:26:53.109Z,19.14
2018-05-16T22:29:20.705Z,19.13
2018-05-16T22:31:53.722Z,19.12
2018-05-16T22:34:26.848Z,19.07
2018-05-16T22:36:59.848Z,18.98
2018-05-16T22:39:33.114Z,18.91
2018-05-16T22:42:06.240Z,18.87
2018-05-16T22:44:39.362Z,18.82
2018-05-16T22:47:06.924Z,18.79
2018-05-16T22:49:34.494Z,18.73
2018-05-16T22:52:02.071Z,18.67
2018-05-16T22:54:29.643Z,18.63
2018-05-16T22:56:57.216Z,18.54
2018-05-16T22:59:24.791Z,18.47
2018-05-16T23:01:52.441Z,18.39
2018-05-16T23:04:19.996Z,18.30
2018-05-16T23:06:47.552Z,18.23
2018-05-16T23:09:15.126Z,18.16
2018-05-16T23:11:42.688Z,18.10
2018-05-16T23:14:10.252Z,18.06
2018-05-16T23:16:37.804Z,18.02
2018-05-16T23:19:05.494Z,17.97
2018-05-16T23:21:33.094Z,17.90
2018-05-16T23:24:00.671Z,17.83
2018-05-16T23:26:28.236Z,17.76
2018-05-16T23:28:55.850Z,17.70
2018-05-16T23:31:23.412Z,17.62
2018-05-16T23:33:50.964Z,17.52
2018-05-16T23:36:18.581Z,17.46
2018-05-16T23:38:46.133Z,17.36
2018-05-16T23:41:13.730Z,17.28
2018-05-16T23:43:41.367Z,17.25
2018-05-16T23:46:09.002Z,17.26
2018-05-16T23:48:36.672Z,17.31
2018-05-16T23:51:04.228Z,17.34
2018-05-16T23:53:31.844Z,17.34
2018-05-16T23:55:59.402Z,17.32
2018-05-16T23:58:27.017Z,17.25
